Time;durP1;ratioP1;P1;durP2;ratioP2;P2;SDS_P1;SDS_P2;PMS_P1;PMS_P2;Temp;Humidity;BMP_temperature;BMP_pressure;BME280_temperature;BME280_humidity;BME280_pressure;Samples;Min_cycle;Max_cycle;Signal;HPM_P1;HPM_P2
2023/11/21 00:01:21;;;;;;;10.03;6.70;;;18.90;73.00;;;;;;5067025;28;20541;-76
2023/11/21 00:03:50;;;;;;;9.93;6.07;;;18.90;72.60;;;;;;5074680;28;20480;-76
2023/11/21 00:06:19;;;;;;;11.17;6.43;;;18.90;72.70;;;;;;5067027;28;20449;-76
2023/11/21 00:08:47;;;;;;;7.93;5.90;;;18.90;72.50;;;;;;5073882;28;20508;-76
2023/11/21 00:11:14;;;;;;;9.17;6.60;;;18.90;72.80;;;;;;5067595;28;20660;-77
2023/11/21 00:13:43;;;;;;;10.47;6.07;;;18.90;72.40;;;;;;5074018;28;20509;-76
2023/11/21 00:16:11;;;;;;;7.73;6.13;;;18.90;72.40;;;;;;5071956;28;20528;-77
2023/11/21 00:18:40;;;;;;;9.87;5.70;;;18.90;72.50;;;;;;5068357;28;20468;-76
2023/11/21 00:21:12;;;;;;;7.87;5.87;;;18.90;72.30;;;;;;5065998;28;20485;-75
2023/11/21 00:23:41;;;;;;;9.23;6.27;;;18.80;72.40;;;;;;5075759;28;20500;-76
2023/11/21 00:26:09;;;;;;;11.50;6.47;;;18.90;72.50;;;;;;5066582;28;20449;-77
2023/11/21 00:28:37;;;;;;;10.53;5.97;;;18.90;72.50;;;;;;5074668;28;20532;-76
2023/11/21 00:31:05;;;;;;;7.27;6.00;;;18.80;72.20;;;;;;5067218;28;20560;-77
2023/11/21 00:33:34;;;;;;;11.73;6.60;;;18.80;72.40;;;;;;5066193;28;20538;-75
2023/11/21 00:36:02;;;;;;;9.30;5.70;;;18.80;72.60;;;;;;5068779;28;20441;-75
2023/11/21 00:38:31;;;;;;;10.63;5.80;;;18.80;73.00;;;;;;5072685;28;20441;-76
2023/11/21 00:40:59;;;;;;;10.57;6.00;;;18.80;72.70;;;;;;5058212;28;20541;-76
2023/11/21 00:43:27;;;;;;;10.03;5.73;;;18.80;72.90;;;;;;5071956;28;20893;-76
2023/11/21 00:45:55;;;;;;;10.20;5.90;;;18.90;72.60;;;;;;5074539;28;20500;-77
2023/11/21 00:48:24;;;;;;;11.17;6.30;;;18.80;72.80;;;;;;5071872;28;20450;-76
2023/11/21 00:50:51;;;;;;;9.43;5.50;;;18.90;72.90;;;;;;5060633;28;20486;-75
2023/11/21 00:53:19;;;;;;;7.90;5.60;;;18.90;72.90;;;;;;5070652;28;20465;-76
2023/11/21 00:55:49;;;;;;;8.43;5.57;;;18.90;72.90;;;;;;5067512;28;20522;-76
2023/11/21 00:58:17;;;;;;;8.80;4.93;;;18.90;72.80;;;;;;5072314;28;20452;-76
2023/11/21 01:00:45;;;;;;;6.43;5.17;;;18.90;72.90;;;;;;5073620;28;20480;-76
2023/11/21 01:03:13;;;;;;;9.37;5.40;;;18.80;72.70;;;;;;5065238;28;20476;-76
2023/11/21 01:05:41;;;;;;;8.00;5.50;;;18.80;72.90;;;;;;5065432;28;20448;-76
2023/11/21 01:08:09;;;;;;;6.93;5.53;;;18.90;72.90;;;;;;5060039;28;20538;-76
2023/11/21 01:10:37;;;;;;;8.10;5.00;;;18.90;72.80;;;;;;5069051;28;20496;-77
2023/11/21 01:13:07;;;;;;;7.97;4.93;;;18.90;73.10;;;;;;5073477;28;20444;-76
2023/11/21 01:15:35;;;;;;;12.90;5.27;;;18.90;73.20;;;;;;5068620;28;20464;-76
2023/11/21 01:18:03;;;;;;;9.20;5.80;;;18.90;73.20;;;;;;5069435;28;20427;-76
2023/11/21 01:20:32;;;;;;;7.30;5.33;;;18.90;73.20;;;;;;5062896;28;20504;-76
2023/11/21 01:23:00;;;;;;;8.23;5.13;;;18.90;73.00;;;;;;5063727;28;20438;-76
2023/11/21 01:25:28;;;;;;;8.07;4.93;;;18.90;73.30;;;;;;5070249;28;20430;-76
2023/11/21 01:27:56;;;;;;;7.40;4.90;;;18.90;72.80;;;;;;5073459;28;20446;-76
2023/11/21 01:30:26;;;;;;;10.23;4.87;;;18.90;73.10;;;;;;5067904;28;21013;-76
2023/11/21 01:32:54;;;;;;;5.90;4.50;;;18.90;73.00;;;;;;5069800;28;20446;-76
2023/11/21 01:35:22;;;;;;;8.33;4.53;;;18.90;72.90;;;;;;5073120;28;20460;-76
2023/11/21 01:37:50;;;;;;;7.20;4.43;;;18.90;73.20;;;;;;5057060;28;20488;-76
2023/11/21 01:40:18;;;;;;;8.73;5.20;;;18.90;73.20;;;;;;5065438;28;20465;-76
2023/11/21 01:42:47;;;;;;;15.00;5.17;;;18.90;73.30;;;;;;5068569;28;20840;-76
2023/11/21 01:45:15;;;;;;;7.73;4.33;;;18.90;72.90;;;;;;5066029;28;20543;-76
2023/11/21 01:47:44;;;;;;;7.33;4.90;;;18.90;73.00;;;;;;5071771;28;20449;-76
2023/11/21 01:50:15;;;;;;;7.43;4.70;;;18.90;73.00;;;;;;5057758;28;20502;-76
2023/11/21 01:52:44;;;;;;;8.83;4.80;;;18.90;73.00;;;;;;5063230;28;20438;-76
2023/11/21 01:55:13;;;;;;;7.70;4.63;;;18.90;72.90;;;;;;5062364;28;20450;-77
2023/11/21 01:57:53;;;;;;;5.73;4.60;;;18.90;73.60;;;;;;5064269;28;20453;-76
2023/11/21 02:00:23;;;;;;;7.00;4.93;;;18.90;73.40;;;;;;5067498;28;20561;-76
2023/11/21 02:02:53;;;;;;;10.93;5.03;;;18.90;73.30;;;;;;5067963;28;20441;-76
2023/11/21 02:05:22;;;;;;;7.63;4.80;;;18.90;72.70;;;;;;5070499;28;20477;-77
2023/11/21 02:07:52;;;;;;;8.77;5.40;;;18.90;73.30;;;;;;5064657;28;20446;-76
2023/11/21 02:10:22;;;;;;;8.73;5.40;;;18.90;73.20;;;;;;5065038;28;20522;-76
2023/11/21 02:12:51;;;;;;;7.13;4.30;;;18.90;73.20;;;;;;5068644;28;20450;-76
2023/11/21 02:15:20;;;;;;;5.80;4.37;;;18.90;73.20;;;;;;5067321;28;20464;-76
2023/11/21 02:17:50;;;;;;;7.40;4.43;;;18.90;73.20;;;;;;5072392;28;20528;-77
2023/11/21 02:20:24;;;;;;;11.87;5.00;;;18.90;73.50;;;;;;5068733;28;20558;-75
2023/11/21 02:22:58;;;;;;;6.33;4.53;;;18.90;73.10;;;;;;5065940;28;20436;-76
2023/11/21 02:25:27;;;;;;;4.60;3.80;;;18.90;73.30;;;;;;5052084;28;20470;-76
2023/11/21 02:27:55;;;;;;;7.17;5.00;;;18.90;73.50;;;;;;5064213;28;20449;-76
2023/11/21 02:30:25;;;;;;;5.30;4.37;;;18.90;73.40;;;;;;5072501;28;20515;-76
2023/11/21 02:32:53;;;;;;;8.33;4.50;;;18.90;72.90;;;;;;5072010;28;20442;-75
2023/11/21 02:35:22;;;;;;;8.87;4.40;;;18.90;73.30;;;;;;5064131;28;20524;-77
2023/11/21 02:37:50;;;;;;;9.00;4.40;;;18.90;73.40;;;;;;5072300;28;20473;-77
2023/11/21 02:40:20;;;;;;;5.10;4.17;;;18.90;73.30;;;;;;5071758;28;20470;-76
2023/11/21 02:42:50;;;;;;;6.37;4.37;;;19.00;73.30;;;;;;5069443;28;20442;-76
2023/11/21 02:45:20;;;;;;;5.97;4.43;;;19.00;73.20;;;;;;5066497;28;20478;-77
2023/11/21 02:47:49;;;;;;;5.80;4.23;;;18.90;73.40;;;;;;5057350;28;20450;-77
2023/11/21 02:50:18;;;;;;;6.83;3.80;;;18.90;73.40;;;;;;5068067;28;20469;-76
2023/11/21 02:52:47;;;;;;;6.20;3.87;;;18.90;73.40;;;;;;5071230;28;20487;-77
2023/11/21 02:55:15;;;;;;;6.33;4.00;;;18.90;73.30;;;;;;5071799;28;20476;-77
2023/11/21 02:57:44;;;;;;;5.43;3.77;;;18.90;73.40;;;;;;5066237;28;20454;-77
2023/11/21 03:00:14;;;;;;;6.10;4.07;;;19.00;73.30;;;;;;5071597;28;20548;-77
2023/11/21 03:02:43;;;;;;;6.30;4.23;;;18.90;73.40;;;;;;5066622;28;20528;-76
2023/11/21 03:05:12;;;;;;;5.37;3.90;;;18.90;73.50;;;;;;5052585;28;20470;-77
2023/11/21 03:07:40;;;;;;;4.27;3.87;;;18.90;73.60;;;;;;5068445;28;20449;-77
2023/11/21 03:10:10;;;;;;;4.53;3.67;;;18.90;73.50;;;;;;5070654;28;20473;-77
2023/11/21 03:12:39;;;;;;;7.27;4.03;;;19.00;73.70;;;;;;5071924;28;20441;-77
2023/11/21 03:15:09;;;;;;;5.50;4.00;;;19.00;73.20;;;;;;5071477;28;20447;-77
2023/11/21 03:17:37;;;;;;;5.40;4.03;;;19.00;73.40;;;;;;5066528;28;20839;-77
2023/11/21 03:20:10;;;;;;;5.50;3.83;;;19.00;73.50;;;;;;5073236;28;20505;-77
2023/11/21 03:22:39;;;;;;;6.43;3.67;;;18.90;73.20;;;;;;5072908;28;20449;-77
2023/11/21 03:25:10;;;;;;;6.20;3.87;;;18.90;73.70;;;;;;5067436;28;20465;-76
2023/11/21 03:27:39;;;;;;;4.33;3.87;;;18.90;73.60;;;;;;5067278;28;20440;-78
2023/11/21 03:30:10;;;;;;;9.90;3.93;;;18.90;73.60;;;;;;5072320;28;20481;-77
2023/11/21 03:32:38;;;;;;;5.80;3.90;;;19.00;73.80;;;;;;5064122;28;20502;-78
2023/11/21 03:35:07;;;;;;;6.20;3.87;;;18.90;73.70;;;;;;5070125;28;20436;-77
2023/11/21 03:37:35;;;;;;;7.27;4.17;;;18.90;73.50;;;;;;5072884;28;20464;-77
2023/11/21 03:40:04;;;;;;;5.27;4.10;;;19.00;73.80;;;;;;5068946;28;20515;-77
2023/11/21 03:42:33;;;;;;;7.50;4.00;;;18.90;73.30;;;;;;5069598;28;20441;-76
2023/11/21 03:45:01;;;;;;;5.10;4.07;;;19.00;73.60;;;;;;5070835;28;20469;-76
2023/11/21 03:47:30;;;;;;;5.27;3.83;;;19.00;73.80;;;;;;5073121;28;20437;-76
2023/11/21 03:49:58;;;;;;;5.03;3.73;;;19.00;73.90;;;;;;5072975;28;20516;-77
2023/11/21 03:52:27;;;;;;;4.00;3.60;;;19.00;73.40;;;;;;5075078;28;20446;-76
2023/11/21 03:54:55;;;;;;;7.27;3.60;;;18.90;73.60;;;;;;5068868;28;20436;-77
2023/11/21 03:57:23;;;;;;;7.80;4.07;;;19.00;73.80;;;;;;5076224;28;20450;-76
2023/11/21 03:59:50;;;;;;;4.50;3.33;;;19.00;73.90;;;;;;5065143;28;20523;-76
2023/11/21 04:02:18;;;;;;;6.50;3.83;;;18.90;73.60;;;;;;5062707;28;20520;-77
2023/11/21 04:04:48;;;;;;;4.63;3.53;;;18.90;73.90;;;;;;5065806;28;20473;-77
2023/11/21 04:07:17;;;;;;;3.87;3.50;;;18.90;73.80;;;;;;5073842;28;20452;-77
2023/11/21 04:09:45;;;;;;;5.20;3.83;;;18.90;73.90;;;;;;5066400;28;20503;-77
2023/11/21 04:12:13;;;;;;;3.90;3.50;;;18.90;73.90;;;;;;5069794;28;20474;-76
2023/11/21 04:14:41;;;;;;;5.17;3.80;;;18.90;73.70;;;;;;5065536;28;20438;-77
2023/11/21 04:17:09;;;;;;;3.37;3.07;;;18.90;73.90;;;;;;5063518;28;20450;-76
2023/11/21 04:19:37;;;;;;;4.03;3.60;;;18.90;73.60;;;;;;5069258;28;20509;-76
2023/11/21 04:22:07;;;;;;;4.40;3.80;;;18.90;73.80;;;;;;5061641;28;20445;-77
2023/11/21 04:24:35;;;;;;;3.47;3.17;;;18.90;73.60;;;;;;5065476;28;20518;-77
2023/11/21 04:27:03;;;;;;;3.57;3.27;;;18.90;73.80;;;;;;5071798;28;20461;-76
2023/11/21 04:29:31;;;;;;;4.77;3.50;;;18.90;73.70;;;;;;5074097;28;20441;-77
2023/11/21 04:31:59;;;;;;;4.27;3.50;;;18.90;73.90;;;;;;5074814;28;20473;-77
2023/11/21 04:34:27;;;;;;;6.87;3.70;;;18.90;73.50;;;;;;5071841;28;20521;-77
2023/11/21 04:36:55;;;;;;;4.00;3.60;;;18.90;73.90;;;;;;5072266;28;20445;-77
2023/11/21 04:39:24;;;;;;;3.50;3.20;;;18.90;73.80;;;;;;5072985;28;20559;-76
2023/11/21 04:41:52;;;;;;;5.73;4.00;;;18.90;73.90;;;;;;5068279;28;20514;-76
2023/11/21 04:44:20;;;;;;;5.30;3.57;;;18.90;73.60;;;;;;5070705;28;20438;-76
2023/11/21 04:46:48;;;;;;;5.40;3.47;;;18.90;73.60;;;;;;5065301;28;20475;-75
2023/11/21 04:49:17;;;;;;;5.40;3.53;;;18.90;73.70;;;;;;5069276;28;20460;-76
2023/11/21 04:51:45;;;;;;;5.80;3.60;;;18.90;73.90;;;;;;5068466;28;20446;-76
2023/11/21 04:54:13;;;;;;;3.90;3.60;;;18.90;73.90;;;;;;5074762;28;20538;-76
2023/11/21 04:56:42;;;;;;;5.57;3.27;;;18.90;73.60;;;;;;5079406;28;20438;-76
2023/11/21 04:59:10;;;;;;;4.47;3.40;;;18.90;73.90;;;;;;5063747;28;20526;-76
2023/11/21 05:01:38;;;;;;;3.93;3.50;;;18.90;74.00;;;;;;5074047;28;20537;-76
2023/11/21 05:04:08;;;;;;;4.40;3.20;;;18.90;73.80;;;;;;5070783;28;20518;-76
2023/11/21 05:06:36;;;;;;;5.17;3.57;;;18.90;74.10;;;;;;5069008;28;20477;-75
2023/11/21 05:09:04;;;;;;;3.50;3.20;;;18.90;74.10;;;;;;5062742;28;20429;-76
2023/11/21 05:11:33;;;;;;;3.70;3.27;;;18.90;73.80;;;;;;5065505;28;21104;-75
2023/11/21 05:14:03;;;;;;;3.80;3.50;;;18.90;73.80;;;;;;5063298;28;20441;-76
2023/11/21 05:16:31;;;;;;;3.97;3.30;;;18.90;73.60;;;;;;5067141;28;20493;-76
2023/11/21 05:19:00;;;;;;;4.63;3.03;;;18.90;73.70;;;;;;5063555;28;20443;-75
2023/11/21 05:21:29;;;;;;;4.30;3.57;;;18.80;73.90;;;;;;5073651;28;20556;-76
2023/11/21 05:23:57;;;;;;;4.20;3.40;;;18.80;73.90;;;;;;5067644;28;20532;-76
2023/11/21 05:26:25;;;;;;;4.73;3.50;;;18.90;73.80;;;;;;5070444;28;20467;-76
2023/11/21 05:28:53;;;;;;;4.60;3.60;;;18.80;74.00;;;;;;5065352;28;20450;-76
2023/11/21 05:31:22;;;;;;;3.80;3.30;;;18.80;73.60;;;;;;5073047;28;20476;-76
2023/11/21 05:33:51;;;;;;;3.00;2.73;;;18.80;73.80;;;;;;5071581;28;20446;-76
2023/11/21 05:36:19;;;;;;;4.67;3.20;;;18.80;73.80;;;;;;5071788;28;20507;-77
2023/11/21 05:38:47;;;;;;;3.57;3.20;;;18.80;74.20;;;;;;5061626;28;20511;-76
2023/11/21 05:41:16;;;;;;;3.10;2.80;;;18.80;73.80;;;;;;5068949;28;20476;-75
2023/11/21 05:43:45;;;;;;;3.67;3.20;;;18.80;73.80;;;;;;5058989;28;20476;-78
2023/11/21 05:46:13;;;;;;;5.57;3.30;;;18.80;74.00;;;;;;5065084;28;20533;-77
2023/11/21 05:48:45;;;;;;;3.67;3.33;;;18.80;73.90;;;;;;5072716;28;20449;-76
2023/11/21 05:51:13;;;;;;;3.97;3.57;;;18.80;73.90;;;;;;5081853;22;20550;-75
2023/11/21 05:53:41;;;;;;;5.03;3.27;;;18.80;73.60;;;;;;5069341;28;20449;-74
2023/11/21 05:56:09;;;;;;;3.63;3.23;;;18.80;73.70;;;;;;5072053;28;21020;-73
2023/11/21 05:58:37;;;;;;;5.57;3.57;;;18.80;74.30;;;;;;5071773;28;20435;-75
2023/11/21 06:01:07;;;;;;;3.30;3.00;;;18.80;74.30;;;;;;5067903;28;20451;-74
2023/11/21 06:03:35;;;;;;;3.70;3.40;;;18.80;74.00;;;;;;5059441;28;20469;-73
2023/11/21 06:06:06;;;;;;;3.87;3.20;;;18.80;73.70;;;;;;5070262;28;20481;-73
2023/11/21 06:08:34;;;;;;;3.87;3.43;;;18.70;73.90;;;;;;5070852;28;20430;-74
2023/11/21 06:11:02;;;;;;;3.97;3.20;;;18.70;74.20;;;;;;5070460;28;20461;-73
2023/11/21 06:13:31;;;;;;;3.77;3.27;;;18.80;74.20;;;;;;5065954;28;21002;-75
2023/11/21 06:15:58;;;;;;;4.07;3.33;;;18.70;74.00;;;;;;5062890;28;20429;-74
2023/11/21 06:18:27;;;;;;;3.73;3.40;;;18.80;73.80;;;;;;5067772;28;20537;-74
2023/11/21 06:20:55;;;;;;;3.33;3.03;;;18.70;73.90;;;;;;5063720;28;20461;-73
2023/11/21 06:23:24;;;;;;;4.10;3.70;;;18.70;74.00;;;;;;5066161;28;20462;-74
2023/11/21 06:25:52;;;;;;;3.47;3.17;;;18.70;74.10;;;;;;5062149;28;20427;-74
2023/11/21 06:28:20;;;;;;;3.53;3.23;;;18.70;73.90;;;;;;5071044;28;20480;-73
2023/11/21 06:30:50;;;;;;;5.80;3.90;;;18.70;74.00;;;;;;5055663;28;20454;-73
2023/11/21 06:33:18;;;;;;;4.50;3.20;;;18.70;74.00;;;;;;5064211;28;20445;-74
2023/11/21 06:35:46;;;;;;;6.60;3.40;;;18.70;73.90;;;;;;5061769;28;20940;-74
2023/11/21 06:38:14;;;;;;;3.50;3.20;;;18.70;73.80;;;;;;5062062;28;20514;-74
2023/11/21 06:40:44;;;;;;;5.33;3.63;;;18.70;73.60;;;;;;5065633;28;20561;-75
2023/11/21 06:43:12;;;;;;;4.17;3.30;;;18.70;74.00;;;;;;5068774;28;20465;-74
2023/11/21 06:45:39;;;;;;;3.37;3.07;;;18.70;73.60;;;;;;5062943;28;20453;-74
2023/11/21 06:48:07;;;;;;;3.60;3.30;;;18.70;74.00;;;;;;5064842;28;20510;-74
2023/11/21 06:50:35;;;;;;;3.57;3.27;;;18.70;73.50;;;;;;5067372;28;20473;-74
2023/11/21 06:53:06;;;;;;;3.10;2.80;;;18.70;73.80;;;;;;5063191;28;20876;-73
2023/11/21 06:55:35;;;;;;;3.97;3.37;;;18.60;73.80;;;;;;5076107;28;20552;-74
2023/11/21 06:58:05;;;;;;;4.83;3.57;;;18.60;73.60;;;;;;5076271;28;20441;-74
2023/11/21 07:00:32;;;;;;;3.43;3.00;;;18.60;73.80;;;;;;5070656;28;20482;-74
2023/11/21 07:03:00;;;;;;;3.50;3.10;;;18.60;73.70;;;;;;5064795;28;20484;-74
2023/11/21 07:05:28;;;;;;;4.20;3.10;;;18.60;73.60;;;;;;5075818;28;20449;-74
2023/11/21 07:07:57;;;;;;;3.57;3.27;;;18.60;73.30;;;;;;5075487;28;20480;-74
2023/11/21 07:10:25;;;;;;;3.53;3.20;;;18.60;73.80;;;;;;5075649;28;20458;-74
2023/11/21 07:12:53;;;;;;;3.87;3.47;;;18.60;73.50;;;;;;5075371;28;20929;-73
2023/11/21 07:15:22;;;;;;;3.50;3.20;;;18.60;73.50;;;;;;5055801;28;20431;-74
2023/11/21 07:17:50;;;;;;;3.40;3.20;;;18.50;73.20;;;;;;5061636;28;20425;-74
2023/11/21 07:20:18;;;;;;;4.10;3.63;;;18.50;73.20;;;;;;5064018;28;20445;-75
2023/11/21 07:22:46;;;;;;;3.60;3.30;;;18.50;73.50;;;;;;5068603;28;20458;-73
2023/11/21 07:25:14;;;;;;;3.87;3.50;;;18.50;73.10;;;;;;5072096;28;20533;-75
2023/11/21 07:27:44;;;;;;;4.90;3.43;;;18.50;73.10;;;;;;5075128;28;20469;-74
2023/11/21 07:30:13;;;;;;;3.10;2.90;;;18.50;73.30;;;;;;5075448;28;20461;-74
2023/11/21 07:32:42;;;;;;;3.90;3.50;;;18.50;73.40;;;;;;5075232;28;20473;-74
2023/11/21 07:35:10;;;;;;;3.53;3.23;;;18.50;73.20;;;;;;5073543;28;20434;-74
2023/11/21 07:37:38;;;;;;;4.47;3.00;;;18.50;72.80;;;;;;5069623;28;20806;-74
2023/11/21 07:40:08;;;;;;;3.87;3.37;;;18.50;72.90;;;;;;5066433;28;20484;-74
2023/11/21 07:42:37;;;;;;;2.90;2.70;;;18.50;73.00;;;;;;5074965;28;20442;-74
2023/11/21 07:45:06;;;;;;;3.73;3.40;;;18.50;72.90;;;;;;5074883;28;20504;-75
2023/11/21 07:47:35;;;;;;;4.03;3.63;;;18.50;72.60;;;;;;5074582;28;20465;-74
2023/11/21 07:50:07;;;;;;;3.13;2.93;;;18.50;72.30;;;;;;5074684;28;21079;-74
2023/11/21 07:52:36;;;;;;;3.47;3.17;;;18.50;72.80;;;;;;5074840;28;20484;-75
2023/11/21 07:55:04;;;;;;;5.70;3.80;;;18.50;72.40;;;;;;5074997;28;20492;-74
2023/11/21 07:57:32;;;;;;;4.40;3.67;;;18.50;72.90;;;;;;5070650;28;20449;-74
2023/11/21 08:00:00;;;;;;;3.20;2.90;;;18.50;72.60;;;;;;5073531;28;20492;-74
2023/11/21 08:02:28;;;;;;;3.77;3.17;;;18.50;72.50;;;;;;5074669;28;20446;-75
2023/11/21 08:04:56;;;;;;;3.77;3.47;;;18.50;72.60;;;;;;5074463;28;20528;-74
2023/11/21 08:07:27;;;;;;;3.40;3.20;;;18.50;72.50;;;;;;5068232;28;20465;-75
2023/11/21 08:09:56;;;;;;;3.40;3.10;;;18.50;72.50;;;;;;5084031;28;20461;-75
2023/11/21 08:12:26;;;;;;;3.50;3.20;;;18.50;72.30;;;;;;5092646;28;20460;-75
2023/11/21 08:14:54;;;;;;;4.63;3.43;;;18.50;72.50;;;;;;5078691;28;20470;-75
2023/11/21 08:17:23;;;;;;;3.70;3.40;;;18.50;72.10;;;;;;5072920;28;20454;-74
2023/11/21 08:19:52;;;;;;;3.80;3.50;;;18.50;72.50;;;;;;5072541;28;20441;-75
2023/11/21 08:22:21;;;;;;;3.70;3.10;;;18.50;72.40;;;;;;5071797;28;20461;-74
2023/11/21 08:24:50;;;;;;;3.87;3.57;;;18.50;72.50;;;;;;5067326;28;20477;-75
2023/11/21 08:27:19;;;;;;;4.30;3.63;;;18.50;72.30;;;;;;5072960;28;20497;-75
2023/11/21 08:29:47;;;;;;;3.33;3.13;;;18.50;72.50;;;;;;5073214;28;20457;-75
2023/11/21 08:32:15;;;;;;;4.80;3.63;;;18.60;72.60;;;;;;5073931;28;20484;-75
2023/11/21 08:34:44;;;;;;;4.47;3.40;;;18.60;72.80;;;;;;5074266;28;20533;-75
2023/11/21 08:37:15;;;;;;;3.83;3.43;;;18.60;72.30;;;;;;5073635;28;20457;-75
2023/11/21 08:39:44;;;;;;;4.10;3.70;;;18.70;72.10;;;;;;5068911;28;20446;-75
2023/11/21 08:42:13;;;;;;;3.87;3.53;;;18.80;72.30;;;;;;5069118;28;20491;-75
2023/11/21 08:44:41;;;;;;;3.10;2.90;;;18.80;72.60;;;;;;5067544;28;20438;-75
2023/11/21 08:47:09;;;;;;;3.23;3.03;;;18.90;72.60;;;;;;5066682;28;20465;-75
2023/11/21 08:49:37;;;;;;;3.70;3.40;;;19.00;72.40;;;;;;5071195;28;20453;-74
2023/11/21 08:52:06;;;;;;;3.43;3.17;;;19.00;72.10;;;;;;5065872;28;20427;-75
2023/11/21 08:54:34;;;;;;;4.23;3.20;;;18.90;71.90;;;;;;5060794;28;20463;-75
2023/11/21 08:57:03;;;;;;;3.67;3.20;;;18.90;72.00;;;;;;5064815;28;20445;-75
2023/11/21 08:59:33;;;;;;;4.90;3.10;;;18.90;72.20;;;;;;5066315;28;20433;-74
2023/11/21 09:02:00;;;;;;;3.80;3.50;;;19.00;72.50;;;;;;5067619;28;20462;-74
2023/11/21 09:04:29;;;;;;;3.20;3.00;;;19.00;72.30;;;;;;5069484;28;20485;-74
2023/11/21 09:06:59;;;;;;;3.93;3.53;;;19.00;72.30;;;;;;5064566;28;20450;-74
2023/11/21 09:09:28;;;;;;;3.90;3.60;;;18.90;72.10;;;;;;5068539;28;20492;-74
2023/11/21 09:11:56;;;;;;;4.00;3.60;;;18.90;72.10;;;;;;5068778;28;20462;-74
2023/11/21 09:14:24;;;;;;;4.43;4.03;;;18.90;72.20;;;;;;5072194;28;20438;-75
2023/11/21 09:16:54;;;;;;;5.73;4.23;;;18.90;71.50;;;;;;5069224;28;20446;-75
2023/11/21 09:19:22;;;;;;;4.50;3.93;;;18.90;72.30;;;;;;5073339;28;20448;-75
2023/11/21 09:21:50;;;;;;;5.50;3.80;;;18.90;72.20;;;;;;5071519;28;20548;-81
2023/11/21 09:24:18;;;;;;;5.57;4.20;;;18.90;71.70;;;;;;5072914;28;20445;-75
2023/11/21 09:26:46;;;;;;;4.83;4.37;;;18.90;72.50;;;;;;5067402;28;20443;-76
2023/11/21 09:29:14;;;;;;;4.40;4.10;;;18.90;72.00;;;;;;5053405;28;20531;-77
2023/11/21 09:31:43;;;;;;;4.20;3.87;;;18.90;71.90;;;;;;5065877;28;20461;-76
2023/11/21 09:34:14;;;;;;;5.30;4.20;;;18.90;72.10;;;;;;5071299;28;20433;-76
2023/11/21 09:36:43;;;;;;;4.73;4.33;;;18.90;72.40;;;;;;5065008;28;20437;-77
2023/11/21 09:39:14;;;;;;;5.27;4.13;;;18.90;72.40;;;;;;5069282;28;20494;-77
2023/11/21 09:41:44;;;;;;;5.03;4.53;;;19.00;72.40;;;;;;5066434;28;20516;-77
2023/11/21 09:44:14;;;;;;;5.90;4.30;;;19.00;72.10;;;;;;5072057;28;20528;-77
2023/11/21 09:46:42;;;;;;;5.53;4.30;;;19.00;72.20;;;;;;5072056;28;20472;-77
2023/11/21 09:49:13;;;;;;;6.60;4.73;;;19.00;72.10;;;;;;5071552;28;20444;-77
2023/11/21 09:51:43;;;;;;;4.97;4.47;;;19.10;72.30;;;;;;5071293;28;20535;-77
2023/11/21 09:54:12;;;;;;;5.17;4.70;;;19.10;72.30;;;;;;5071314;28;20495;-77
2023/11/21 09:56:39;;;;;;;6.10;4.37;;;19.10;72.00;;;;;;5062078;28;20441;-77
2023/11/21 09:59:09;;;;;;;5.77;4.80;;;19.20;72.40;;;;;;5066189;28;20525;-78
2023/11/21 10:01:39;;;;;;;4.70;4.30;;;19.20;71.60;;;;;;5069938;28;20508;-77
2023/11/21 10:04:11;;;;;;;9.77;5.17;;;19.20;72.60;;;;;;5069096;28;20429;-76
2023/11/21 10:06:39;;;;;;;6.23;4.83;;;19.30;72.40;;;;;;5058864;28;20442;-76
2023/11/21 10:09:11;;;;;;;5.47;4.90;;;19.30;72.40;;;;;;5054259;28;20570;-77
2023/11/21 10:11:42;;;;;;;5.33;4.80;;;19.40;72.40;;;;;;5050386;28;20463;-77
2023/11/21 10:14:12;;;;;;;4.93;4.53;;;19.50;72.20;;;;;;5051311;28;20462;-77
2023/11/21 10:16:41;;;;;;;7.73;4.47;;;19.50;72.00;;;;;;5063138;28;20465;-77
2023/11/21 10:19:10;;;;;;;6.80;4.80;;;19.60;72.00;;;;;;5070091;28;20470;-77
2023/11/21 10:21:39;;;;;;;7.40;5.10;;;19.50;71.80;;;;;;5070630;28;20461;-76
2023/11/21 10:24:09;;;;;;;8.90;5.23;;;19.60;72.20;;;;;;5059232;28;20449;-76
2023/11/21 10:26:37;;;;;;;6.17;5.10;;;19.50;71.60;;;;;;5062706;28;20466;-77
2023/11/21 10:29:21;;;;;;;9.73;5.40;;;19.60;71.90;;;;;;5069678;28;20477;-77
2023/11/21 10:31:50;;;;;;;5.73;4.50;;;19.60;71.60;;;;;;5059619;28;20462;-77
2023/11/21 10:34:19;;;;;;;4.87;4.47;;;19.60;72.40;;;;;;5067670;28;20513;-77
2023/11/21 10:36:47;;;;;;;5.00;4.57;;;19.60;72.20;;;;;;5063884;28;20909;-76
2023/11/21 10:39:18;;;;;;;5.53;4.93;;;19.60;72.30;;;;;;5064262;28;20462;-76
2023/11/21 10:41:46;;;;;;;7.80;5.50;;;19.60;72.10;;;;;;5056045;28;20520;-77
2023/11/21 10:44:20;;;;;;;6.60;5.07;;;19.60;72.10;;;;;;5070049;28;20505;-76
2023/11/21 10:46:50;;;;;;;6.70;5.20;;;19.60;72.00;;;;;;5070314;28;20437;-75
2023/11/21 10:49:19;;;;;;;5.07;4.60;;;19.60;71.90;;;;;;5069833;28;20466;-76
2023/11/21 10:51:48;;;;;;;5.67;5.07;;;19.50;72.00;;;;;;5053758;28;20478;-76
2023/11/21 10:54:20;;;;;;;5.30;4.80;;;19.60;72.40;;;;;;5062361;28;20521;-76
2023/11/21 10:56:51;;;;;;;4.87;4.47;;;19.60;72.30;;;;;;5065596;28;20427;-76
2023/11/21 10:59:21;;;;;;;5.53;5.00;;;19.60;72.10;;;;;;5067131;28;20434;-76
2023/11/21 11:01:50;;;;;;;5.27;4.77;;;19.60;72.40;;;;;;5085690;28;20420;-76
2023/11/21 11:04:19;;;;;;;6.37;5.37;;;19.70;72.50;;;;;;5072579;28;20430;-76
2023/11/21 11:06:49;;;;;;;7.17;5.00;;;19.70;72.20;;;;;;5062515;28;20540;-78
2023/11/21 11:09:18;;;;;;;5.63;4.90;;;19.70;72.00;;;;;;5061521;28;20501;-77
2023/11/21 11:11:47;;;;;;;5.23;4.80;;;19.70;72.40;;;;;;5062997;28;20540;-77
2023/11/21 11:14:16;;;;;;;5.70;5.00;;;19.70;72.30;;;;;;5070353;28;20495;-78
2023/11/21 11:16:45;;;;;;;5.43;4.40;;;19.70;72.20;;;;;;5071261;28;20495;-77
2023/11/21 11:19:13;;;;;;;6.23;5.20;;;19.80;72.50;;;;;;5066931;28;20450;-77
2023/11/21 11:21:48;;;;;;;5.30;4.80;;;19.80;72.50;;;;;;5054571;28;20458;-77
2023/11/21 11:24:34;;;;;;;6.20;4.90;;;19.80;72.50;;;;;;5070568;28;20520;-77
2023/11/21 11:27:09;;;;;;;5.60;5.10;;;19.80;72.50;;;;;;5070105;28;20457;-77
2023/11/21 11:29:40;;;;;;;5.80;4.97;;;19.80;72.30;;;;;;5053900;28;20543;-77
2023/11/21 11:32:13;;;;;;;5.57;4.93;;;19.80;72.40;;;;;;5068353;28;20516;-77
2023/11/21 11:34:44;;;;;;;5.27;4.73;;;19.80;72.10;;;;;;5071616;28;20445;-77
2023/11/21 11:37:13;;;;;;;4.87;4.43;;;19.90;72.70;;;;;;5060448;28;20439;-77
2023/11/21 11:39:43;;;;;;;4.90;4.40;;;19.80;72.00;;;;;;5055080;28;20525;-77
2023/11/21 11:42:15;;;;;;;5.53;4.80;;;19.80;72.10;;;;;;5074328;28;20449;-76
2023/11/21 11:44:51;;;;;;;4.73;4.33;;;19.70;71.90;;;;;;5068113;28;20541;-77
2023/11/21 11:47:27;;;;;;;9.20;4.80;;;19.70;72.20;;;;;;5063346;28;20433;-78
2023/11/21 11:49:59;;;;;;;5.97;4.23;;;19.70;72.30;;;;;;5082620;22;20552;-72
2023/11/21 11:52:33;;;;;;;5.67;5.03;;;19.60;72.30;;;;;;5061328;28;20478;-76
2023/11/21 11:55:02;;;;;;;4.83;4.43;;;19.60;72.60;;;;;;5065671;28;20441;-76
2023/11/21 11:57:33;;;;;;;5.10;4.33;;;19.60;72.60;;;;;;5073309;28;20743;-75
2023/11/21 12:00:18;;;;;;;5.53;4.73;;;19.60;72.70;;;;;;5066880;28;20974;-77
2023/11/21 12:02:47;;;;;;;4.73;4.33;;;19.50;72.70;;;;;;5039905;28;20892;-76
2023/11/21 12:05:15;;;;;;;5.13;4.20;;;19.50;73.00;;;;;;5047451;28;20521;-76
2023/11/21 12:07:47;;;;;;;4.20;3.90;;;19.50;73.00;;;;;;5044454;28;20537;-77
2023/11/21 12:10:17;;;;;;;5.20;4.70;;;19.40;72.60;;;;;;5051277;28;20510;-75
2023/11/21 12:12:48;;;;;;;4.47;4.07;;;19.40;73.20;;;;;;5043801;28;20485;-77
2023/11/21 12:15:16;;;;;;;4.87;4.30;;;19.40;72.80;;;;;;5052907;28;20546;-78
2023/11/21 12:17:45;;;;;;;4.30;3.97;;;19.40;73.20;;;;;;5042500;28;20447;-76
2023/11/21 12:20:15;;;;;;;6.00;4.10;;;19.40;73.30;;;;;;5043423;28;20494;-76
2023/11/21 12:22:44;;;;;;;4.50;4.10;;;19.40;73.40;;;;;;5043664;28;20482;-77
2023/11/21 12:25:15;;;;;;;4.90;4.40;;;19.50;73.30;;;;;;5042511;28;20490;-77
2023/11/21 12:27:45;;;;;;;4.23;3.83;;;19.40;73.00;;;;;;5042318;28;20443;-77
2023/11/21 12:30:15;;;;;;;5.70;3.70;;;19.50;73.20;;;;;;5046256;28;20990;-77
2023/11/21 12:32:45;;;;;;;5.30;4.00;;;19.40;73.20;;;;;;5043587;28;20477;-77
2023/11/21 12:35:14;;;;;;;4.83;4.17;;;19.40;73.00;;;;;;5038481;28;20485;-77
2023/11/21 12:37:43;;;;;;;4.37;3.97;;;19.40;73.00;;;;;;5049345;28;20466;-77
2023/11/21 12:40:14;;;;;;;3.57;3.37;;;19.40;73.10;;;;;;5037121;28;20476;-75
2023/11/21 12:42:43;;;;;;;4.07;3.77;;;19.40;73.10;;;;;;5043908;28;20431;-75
2023/11/21 12:45:21;;;;;;;4.00;3.70;;;19.40;73.00;;;;;;5045913;28;20455;-75
2023/11/21 12:47:50;;;;;;;3.97;3.57;;;19.40;72.70;;;;;;5035023;28;20514;-75
2023/11/21 12:50:23;;;;;;;4.30;3.90;;;19.40;72.80;;;;;;5042289;28;20489;-76
2023/11/21 12:52:51;;;;;;;4.20;3.90;;;19.40;73.20;;;;;;5053443;28;20477;-75
2023/11/21 12:55:21;;;;;;;4.20;3.90;;;19.40;73.20;;;;;;5053813;28;20448;-75